createdAt,value
2018-12-16T00:01:09.385Z,13.43
2018-12-16T00:03:37.833Z,12.70
2018-12-16T00:06:06.170Z,12.93
2018-12-16T00:08:34.467Z,12.67
2018-12-16T00:11:02.906Z,13.23
2018-12-16T00:13:31.198Z,13.93
2018-12-16T00:15:59.490Z,12.17
2018-12-16T00:18:27.798Z,13.73
2018-12-16T00:20:56.124Z,13.03
2018-12-16T00:23:24.406Z,15.17
2018-12-16T00:25:52.689Z,14.07
2018-12-16T00:28:20.989Z,13.87
2018-12-16T00:30:49.302Z,14.13
2018-12-16T00:33:17.566Z,12.90
2018-12-16T00:35:45.820Z,14.80
2018-12-16T00:38:14.128Z,14.37
2018-12-16T00:40:42.382Z,13.03
2018-12-16T00:43:10.670Z,13.23
2018-12-16T00:45:38.937Z,14.47
2018-12-16T00:48:07.218Z,13.10
2018-12-16T00:50:35.497Z,14.37
2018-12-16T00:53:03.789Z,14.03
2018-12-16T00:55:32.089Z,13.70
2018-12-16T00:58:00.385Z,13.63
2018-12-16T01:00:28.743Z,13.30
2018-12-16T01:02:57.027Z,13.37
2018-12-16T01:05:25.338Z,13.40
2018-12-16T01:07:53.600Z,14.13
2018-12-16T01:10:21.861Z,14.00
2018-12-16T01:12:50.125Z,14.03
2018-12-16T01:18:03.338Z,14.07
2018-12-16T01:20:31.620Z,12.57
2018-12-16T01:22:59.880Z,13.33
2018-12-16T01:25:28.154Z,13.90
2018-12-16T01:27:56.445Z,13.30
2018-12-16T01:30:24.732Z,13.70
2018-12-16T01:32:52.959Z,13.23
2018-12-16T01:35:21.252Z,13.27
2018-12-16T01:37:49.515Z,13.20
2018-12-16T01:40:17.795Z,14.63
2018-12-16T01:42:46.094Z,12.43
2018-12-16T01:45:14.438Z,13.97
2018-12-16T01:47:42.721Z,13.00
2018-12-16T01:50:11.044Z,13.67
2018-12-16T01:52:39.339Z,12.87
2018-12-16T01:55:07.761Z,13.20
2018-12-16T01:57:36.054Z,12.77
2018-12-16T02:00:04.719Z,12.60
2018-12-16T02:02:33.012Z,13.37
2018-12-16T02:05:01.277Z,14.20
2018-12-16T02:07:29.588Z,13.87
2018-12-16T02:09:57.890Z,12.70
2018-12-16T02:12:26.213Z,13.30
2018-12-16T02:14:54.480Z,14.40
2018-12-16T02:17:22.832Z,12.80
2018-12-16T02:19:51.128Z,13.17
2018-12-16T02:22:19.378Z,13.23
2018-12-16T02:24:47.647Z,13.17
2018-12-16T02:27:15.972Z,12.33
2018-12-16T02:29:44.252Z,12.50
2018-12-16T02:32:12.579Z,12.97
2018-12-16T02:34:40.905Z,13.53
2018-12-16T02:37:09.210Z,13.40
2018-12-16T02:39:37.510Z,14.13
2018-12-16T02:42:05.801Z,13.70
2018-12-16T02:44:34.148Z,12.30
2018-12-16T02:47:02.519Z,13.47
2018-12-16T02:49:30.816Z,14.07
2018-12-16T02:51:59.149Z,13.30
2018-12-16T02:54:27.419Z,12.90
2018-12-16T02:56:55.718Z,13.10
2018-12-16T02:59:23.982Z,13.33
2018-12-16T03:01:52.297Z,13.37
2018-12-16T03:04:20.613Z,12.90
2018-12-16T03:06:48.955Z,13.53
2018-12-16T03:09:17.432Z,13.97
2018-12-16T03:11:45.772Z,13.33
2018-12-16T03:14:14.114Z,13.57
2018-12-16T03:16:42.370Z,14.40
2018-12-16T03:19:10.709Z,13.73
2018-12-16T03:21:39.034Z,13.37
2018-12-16T03:24:07.326Z,13.50
2018-12-16T03:26:36.383Z,12.17
2018-12-16T03:29:04.806Z,12.53
2018-12-16T03:31:33.076Z,12.50
2018-12-16T03:34:01.554Z,12.73
2018-12-16T03:36:29.894Z,13.77
2018-12-16T03:38:58.235Z,11.70
2018-12-16T03:41:26.527Z,13.07
2018-12-16T03:43:54.809Z,12.53
2018-12-16T03:46:23.238Z,13.67
2018-12-16T03:48:51.499Z,12.60
2018-12-16T03:51:19.807Z,11.43
2018-12-16T03:53:48.071Z,13.13
2018-12-16T03:56:16.360Z,11.87
2018-12-16T03:58:56.041Z,14.23
2018-12-16T04:01:24.384Z,12.67
2018-12-16T04:03:52.671Z,12.43
2018-12-16T04:06:21.135Z,13.08
2018-12-16T04:08:49.815Z,13.23
2018-12-16T04:11:18.246Z,13.43
2018-12-16T04:13:46.589Z,14.17
2018-12-16T04:16:14.875Z,12.77
2018-12-16T04:18:43.192Z,14.03
2018-12-16T04:21:11.490Z,13.00
2018-12-16T04:23:39.857Z,14.00
2018-12-16T04:26:08.127Z,13.97
2018-12-16T04:28:36.620Z,12.37
2018-12-16T04:31:04.863Z,13.63
2018-12-16T04:33:33.269Z,13.83
2018-12-16T04:36:01.745Z,14.57
2018-12-16T04:38:30.146Z,14.37
2018-12-16T04:40:58.370Z,13.83
2018-12-16T04:43:26.765Z,14.57
2018-12-16T04:45:55.066Z,14.57
2018-12-16T04:48:23.334Z,15.27
2018-12-16T04:50:51.626Z,15.23
2018-12-16T04:53:19.885Z,14.13
2018-12-16T04:55:48.128Z,14.07
2018-12-16T04:58:16.417Z,16.00
2018-12-16T05:00:44.700Z,14.93
2018-12-16T05:03:12.917Z,14.30
2018-12-16T05:05:41.228Z,15.83
2018-12-16T05:08:09.565Z,15.40
2018-12-16T05:10:38.188Z,15.40
2018-12-16T05:13:06.549Z,15.20
2018-12-16T05:15:34.822Z,15.27
2018-12-16T05:18:03.115Z,15.33
2018-12-16T05:20:31.606Z,16.40
2018-12-16T05:23:00.228Z,16.97
2018-12-16T05:25:28.516Z,15.10
2018-12-16T05:27:56.949Z,15.83
2018-12-16T05:30:25.206Z,16.13
2018-12-16T05:32:53.709Z,15.70
2018-12-16T05:35:21.946Z,16.97
2018-12-16T05:37:50.216Z,16.87
2018-12-16T05:40:18.506Z,15.57
2018-12-16T05:42:46.742Z,17.93
2018-12-16T05:45:15.013Z,16.60
2018-12-16T05:47:43.271Z,16.67
2018-12-16T05:50:12.016Z,18.10
2018-12-16T05:52:40.328Z,18.43
2018-12-16T05:55:08.706Z,17.73
2018-12-16T05:57:37.003Z,17.70
2018-12-16T06:00:05.844Z,17.87
2018-12-16T06:02:34.207Z,16.40
2018-12-16T06:05:02.485Z,18.60
2018-12-16T06:07:31.189Z,18.33
2018-12-16T06:10:00.990Z,19.03
2018-12-16T06:12:29.439Z,17.13
2018-12-16T06:14:57.773Z,19.03
2018-12-16T06:17:26.200Z,18.40
2018-12-16T06:19:54.485Z,18.60
2018-12-16T06:22:22.753Z,19.07
2018-12-16T06:24:51.198Z,17.57
2018-12-16T06:27:19.474Z,18.83
2018-12-16T06:29:48.184Z,18.43
2018-12-16T06:32:16.464Z,19.07
2018-12-16T06:34:44.702Z,17.30
2018-12-16T06:37:12.964Z,18.07
2018-12-16T06:39:41.464Z,17.33
2018-12-16T06:42:09.828Z,18.90
2018-12-16T06:44:38.114Z,17.10
2018-12-16T06:47:06.399Z,18.03
2018-12-16T06:49:34.700Z,16.23
2018-12-16T06:52:02.981Z,17.23
2018-12-16T06:54:31.445Z,18.03
2018-12-16T06:56:59.705Z,17.20
2018-12-16T06:59:28.242Z,16.70
2018-12-16T07:01:56.511Z,17.90
2018-12-16T07:04:24.871Z,17.53
2018-12-16T07:06:53.315Z,16.60
2018-12-16T07:09:21.636Z,17.70
2018-12-16T07:11:49.939Z,17.17
2018-12-16T07:14:18.208Z,18.13
2018-12-16T07:16:46.812Z,18.53
2018-12-16T07:19:15.194Z,17.70
2018-12-16T07:21:43.609Z,17.00
2018-12-16T07:24:11.896Z,17.10
2018-12-16T07:26:40.166Z,17.70
2018-12-16T07:29:08.483Z,17.63
2018-12-16T07:31:36.950Z,17.50
2018-12-16T07:34:05.226Z,17.67
2018-12-16T07:36:33.611Z,17.03
2018-12-16T07:39:01.905Z,18.17
2018-12-16T07:41:30.435Z,18.70
2018-12-16T07:43:58.688Z,19.80
2018-12-16T07:46:26.947Z,17.37
2018-12-16T07:48:55.629Z,18.57
2018-12-16T07:51:23.949Z,17.70
2018-12-16T07:53:52.234Z,59.33
2018-12-16T07:56:20.604Z,18.90
2018-12-16T07:58:48.887Z,17.47
2018-12-16T08:01:17.098Z,17.80
2018-12-16T08:03:45.377Z,18.67
2018-12-16T08:06:13.636Z,18.43
2018-12-16T08:08:41.936Z,17.50
2018-12-16T08:11:10.245Z,17.83
2018-12-16T08:13:38.541Z,17.50
2018-12-16T08:16:06.818Z,20.67
2018-12-16T08:18:35.093Z,19.27
2018-12-16T08:21:03.418Z,17.43
2018-12-16T08:23:31.726Z,18.03
2018-12-16T08:25:59.995Z,18.27
2018-12-16T08:28:28.243Z,17.47
2018-12-16T08:30:56.520Z,18.17
2018-12-16T08:33:24.912Z,17.30
2018-12-16T08:35:53.198Z,16.80
2018-12-16T08:38:21.461Z,18.83
2018-12-16T08:40:49.726Z,19.43
2018-12-16T08:43:17.979Z,18.90
2018-12-16T08:45:46.259Z,17.63
2018-12-16T08:48:14.653Z,17.93
2018-12-16T08:50:42.890Z,27.73
2018-12-16T08:53:11.185Z,18.43
2018-12-16T08:55:39.482Z,18.37
2018-12-16T08:58:07.708Z,18.07
2018-12-16T09:00:36.045Z,18.37
2018-12-16T09:03:04.303Z,17.57
2018-12-16T09:05:32.622Z,18.27
2018-12-16T09:08:00.904Z,19.13
2018-12-16T09:10:34.029Z,18.80
2018-12-16T09:12:59.502Z,17.50
2018-12-16T09:15:27.791Z,18.00
2018-12-16T09:17:56.069Z,18.03
2018-12-16T09:20:24.316Z,27.97
2018-12-16T09:22:52.603Z,17.93
2018-12-16T09:25:20.975Z,18.43
2018-12-16T09:27:49.222Z,18.03
2018-12-16T09:30:17.574Z,18.70
2018-12-16T09:32:45.894Z,18.63
2018-12-16T09:35:14.153Z,18.53
2018-12-16T09:37:42.607Z,18.77
2018-12-16T09:40:10.899Z,18.83
2018-12-16T09:42:39.189Z,17.80
2018-12-16T09:45:07.735Z,18.20
2018-12-16T09:47:36.422Z,19.53
2018-12-16T09:50:04.712Z,18.70
2018-12-16T09:52:32.968Z,19.83
2018-12-16T09:55:01.226Z,19.03
2018-12-16T09:57:38.094Z,18.10
2018-12-16T10:00:08.048Z,17.47
2018-12-16T10:02:36.368Z,18.57
2018-12-16T10:05:04.968Z,18.60
2018-12-16T10:07:33.271Z,19.73
2018-12-16T10:10:10.213Z,19.10
2018-12-16T10:12:38.534Z,18.70
2018-12-16T10:15:07.158Z,19.40
2018-12-16T10:17:35.426Z,18.70
2018-12-16T10:20:03.965Z,17.97
2018-12-16T10:22:32.313Z,18.37
2018-12-16T10:25:00.562Z,18.83
2018-12-16T10:27:28.824Z,17.07
2018-12-16T10:29:57.117Z,18.63
2018-12-16T10:32:25.549Z,18.27
2018-12-16T10:34:53.868Z,17.63
2018-12-16T10:37:22.144Z,19.17
2018-12-16T10:39:51.540Z,36.27
2018-12-16T10:42:19.870Z,18.05
2018-12-16T10:44:48.144Z,18.43
2018-12-16T10:47:16.490Z,17.73
2018-12-16T10:49:44.816Z,19.37
2018-12-16T10:52:13.089Z,18.60
2018-12-16T10:54:41.334Z,18.17
2018-12-16T10:57:09.682Z,19.00
2018-12-16T10:59:37.979Z,19.47
2018-12-16T11:02:06.362Z,19.98
2018-12-16T11:04:34.632Z,19.50
2018-12-16T11:07:02.919Z,18.63
2018-12-16T11:09:31.288Z,18.03
2018-12-16T11:11:59.741Z,19.10
2018-12-16T11:14:28.281Z,18.60
2018-12-16T11:16:57.339Z,18.53
2018-12-16T11:19:25.602Z,19.00
2018-12-16T11:21:53.874Z,18.43
2018-12-16T11:24:22.172Z,18.83
2018-12-16T11:26:50.474Z,19.00
2018-12-16T11:29:18.833Z,18.97
2018-12-16T11:31:47.142Z,19.23
2018-12-16T11:34:15.431Z,19.77
2018-12-16T11:36:43.882Z,19.20
2018-12-16T11:39:12.164Z,19.47
2018-12-16T11:41:40.618Z,19.07
2018-12-16T11:44:08.916Z,19.47
2018-12-16T11:46:37.238Z,19.93
2018-12-16T11:49:05.510Z,19.23
2018-12-16T11:51:33.956Z,18.80
2018-12-16T11:54:02.189Z,19.40
2018-12-16T11:56:30.503Z,18.60
2018-12-16T11:58:59.016Z,18.30
2018-12-16T12:01:27.463Z,20.00
2018-12-16T12:03:55.782Z,19.27
2018-12-16T12:06:24.045Z,18.73
2018-12-16T12:08:52.372Z,19.60
2018-12-16T12:11:20.666Z,20.80
2018-12-16T12:13:48.943Z,19.95
2018-12-16T12:16:17.277Z,18.43
2018-12-16T12:18:45.594Z,19.43
2018-12-16T12:21:14.901Z,19.60
2018-12-16T12:23:43.243Z,19.32
2018-12-16T12:26:11.566Z,18.10
2018-12-16T12:28:41.520Z,19.97
2018-12-16T12:31:10.246Z,19.53
2018-12-16T12:33:38.518Z,19.70
2018-12-16T12:36:07.989Z,19.05
2018-12-16T12:38:38.691Z,18.17
2018-12-16T12:41:07.051Z,19.37
2018-12-16T12:43:35.350Z,19.00
2018-12-16T12:46:03.683Z,19.40
2018-12-16T12:48:32.005Z,19.00
2018-12-16T12:51:00.636Z,19.40
2018-12-16T12:53:29.911Z,19.00
2018-12-16T12:55:58.322Z,20.90
2018-12-16T12:58:26.588Z,19.98
2018-12-16T13:00:54.914Z,19.20
2018-12-16T13:03:23.218Z,19.40
2018-12-16T13:05:51.565Z,20.00
2018-12-16T13:08:20.049Z,20.40
2018-12-16T13:10:48.400Z,20.20
2018-12-16T13:13:16.700Z,18.33
2018-12-16T13:15:45.049Z,20.37
2018-12-16T13:18:13.343Z,20.32
2018-12-16T13:20:41.681Z,20.43
2018-12-16T13:23:10.021Z,20.47
2018-12-16T13:25:49.818Z,20.35
2018-12-16T13:28:18.178Z,21.00
2018-12-16T13:30:46.536Z,21.03
2018-12-16T13:33:14.858Z,20.07
2018-12-16T13:35:43.349Z,20.03
2018-12-16T13:38:11.708Z,19.87
2018-12-16T13:40:40.046Z,20.48
2018-12-16T13:43:08.435Z,20.67
2018-12-16T13:45:37.261Z,19.17
2018-12-16T13:48:05.564Z,19.60
2018-12-16T13:50:33.890Z,19.07
2018-12-16T13:53:02.191Z,21.37
2018-12-16T13:55:40.805Z,19.80
2018-12-16T13:58:07.727Z,20.13
2018-12-16T14:00:36.062Z,19.15
2018-12-16T14:03:04.377Z,20.57
2018-12-16T14:05:32.698Z,21.90
2018-12-16T14:08:00.993Z,19.60
2018-12-16T14:10:29.260Z,21.33
2018-12-16T14:12:57.585Z,22.67
2018-12-16T14:15:25.811Z,21.63
2018-12-16T14:17:54.172Z,21.52
2018-12-16T14:20:22.451Z,21.10
2018-12-16T14:22:50.840Z,20.73
2018-12-16T14:25:19.141Z,19.60
2018-12-16T14:27:47.406Z,19.98
2018-12-16T14:30:15.780Z,20.37
2018-12-16T14:32:44.163Z,19.97
2018-12-16T14:35:12.923Z,19.83
2018-12-16T14:37:41.195Z,20.43
2018-12-16T14:40:10.388Z,21.10
2018-12-16T14:42:38.803Z,22.87
2018-12-16T14:45:08.631Z,20.80
2018-12-16T14:47:37.081Z,21.37
2018-12-16T14:50:07.449Z,21.20
2018-12-16T14:52:35.706Z,24.10
2018-12-16T14:55:04.773Z,23.07
2018-12-16T14:57:33.117Z,22.10
2018-12-16T15:00:01.556Z,21.57
2018-12-16T15:02:29.904Z,21.63
2018-12-16T15:04:58.150Z,21.70
2018-12-16T15:10:33.323Z,22.40
2018-12-16T15:13:04.306Z,22.37
2018-12-16T15:15:33.629Z,21.43
2018-12-16T15:18:01.949Z,21.73
2018-12-16T15:20:30.291Z,22.63
2018-12-16T15:22:58.733Z,23.03
2018-12-16T15:25:27.060Z,23.13
2018-12-16T15:27:56.133Z,21.13
2018-12-16T15:30:24.448Z,23.33
2018-12-16T15:32:52.811Z,22.37
2018-12-16T15:35:21.071Z,23.30
2018-12-16T15:37:49.327Z,22.57
2018-12-16T15:40:18.035Z,23.23
2018-12-16T15:42:46.438Z,23.37
2018-12-16T15:45:14.749Z,22.03
2018-12-16T15:47:43.085Z,22.73
2018-12-16T15:50:11.401Z,24.83
2018-12-16T15:52:39.673Z,24.53
2018-12-16T15:55:10.049Z,71.25
2018-12-16T15:57:38.365Z,25.90
2018-12-16T16:00:07.109Z,25.55
2018-12-16T16:02:35.503Z,25.50
2018-12-16T16:05:03.928Z,25.20
2018-12-16T16:07:32.573Z,25.55
2018-12-16T16:10:00.908Z,27.17
2018-12-16T16:12:29.255Z,25.83
2018-12-16T16:14:57.592Z,27.20
2018-12-16T16:17:26.105Z,29.20
2018-12-16T16:19:54.764Z,24.63
2018-12-16T16:22:23.249Z,25.70
2018-12-16T16:24:51.642Z,26.82
2018-12-16T16:27:20.022Z,26.90
2018-12-16T16:29:48.401Z,27.23
2018-12-16T16:32:16.740Z,27.10
2018-12-16T16:34:45.043Z,26.43
2018-12-16T16:37:13.509Z,28.90
2018-12-16T16:39:41.954Z,27.17
2018-12-16T16:42:10.294Z,26.57
2018-12-16T16:44:39.074Z,27.53
2018-12-16T16:47:07.510Z,28.03
2018-12-16T16:49:35.901Z,27.20
2018-12-16T16:52:04.575Z,27.73
2018-12-16T16:54:32.997Z,33.03
2018-12-16T16:57:01.563Z,30.62
2018-12-16T16:59:30.017Z,31.77
2018-12-16T17:01:58.329Z,30.20
2018-12-16T17:04:26.831Z,28.37
2018-12-16T17:06:55.330Z,29.40
2018-12-16T17:09:23.675Z,28.80
2018-12-16T17:11:52.212Z,28.65
2018-12-16T17:14:20.562Z,29.43
2018-12-16T17:16:49.067Z,30.27
2018-12-16T17:19:17.512Z,28.98
2018-12-16T17:21:46.165Z,30.90
2018-12-16T17:24:14.623Z,30.57
2018-12-16T17:26:43.036Z,30.67
2018-12-16T17:29:11.761Z,30.70
2018-12-16T17:31:40.141Z,31.17
2018-12-16T17:34:08.545Z,32.27
2018-12-16T17:36:37.188Z,31.27
2018-12-16T17:39:08.111Z,30.30
2018-12-16T17:41:36.434Z,31.70
2018-12-16T17:44:05.127Z,31.42
2018-12-16T17:46:33.466Z,46.75
2018-12-16T17:49:01.923Z,33.00
2018-12-16T17:51:30.425Z,31.93
2018-12-16T17:53:58.739Z,31.20
2018-12-16T17:56:27.020Z,32.10
2018-12-16T17:58:55.788Z,32.77
2018-12-16T18:01:24.704Z,33.80
2018-12-16T18:03:53.821Z,32.50
2018-12-16T18:06:22.514Z,33.67
2018-12-16T18:08:51.538Z,34.38
2018-12-16T18:11:19.790Z,33.50
2018-12-16T18:13:48.391Z,33.40
2018-12-16T18:16:16.902Z,31.97
2018-12-16T18:18:45.196Z,34.87
2018-12-16T18:21:13.493Z,32.48
2018-12-16T18:23:41.856Z,34.17
2018-12-16T18:26:10.653Z,33.27
2018-12-16T18:28:39.357Z,33.73
2018-12-16T18:31:07.868Z,34.03
2018-12-16T18:33:36.164Z,33.60
2018-12-16T18:36:04.473Z,32.90
2018-12-16T18:38:33.226Z,34.13
2018-12-16T18:41:01.672Z,34.13
2018-12-16T18:43:30.288Z,35.57
2018-12-16T18:45:59.131Z,33.90
2018-12-16T18:48:27.462Z,33.53
2018-12-16T18:50:55.865Z,34.67
2018-12-16T18:53:24.451Z,35.30
2018-12-16T18:55:52.744Z,31.90
2018-12-16T18:58:22.268Z,34.40
2018-12-16T19:00:50.616Z,38.13
2018-12-16T19:03:19.252Z,32.73
2018-12-16T19:05:47.757Z,34.73
2018-12-16T19:08:16.386Z,33.00
2018-12-16T19:10:45.372Z,34.87
2018-12-16T19:15:57.612Z,32.85
2018-12-16T19:18:27.324Z,33.17
2018-12-16T19:20:55.638Z,33.03
2018-12-16T19:23:25.993Z,35.17
2018-12-16T19:26:10.537Z,32.10
2018-12-16T19:28:45.193Z,33.10
2018-12-16T19:31:23.113Z,32.33
2018-12-16T19:34:21.480Z,31.63
2018-12-16T19:36:55.779Z,31.90
2018-12-16T19:39:39.207Z,33.57
2018-12-16T19:42:07.638Z,36.33
2018-12-16T19:44:35.912Z,31.93
2018-12-16T19:47:04.363Z,30.97
2018-12-16T19:49:32.876Z,31.07
2018-12-16T19:52:01.245Z,30.97
2018-12-16T19:54:30.122Z,30.80
2018-12-16T19:57:04.942Z,31.57
2018-12-16T19:59:29.052Z,32.90
2018-12-16T20:01:57.311Z,32.83
2018-12-16T20:04:30.762Z,30.83
2018-12-16T20:06:59.198Z,29.90
2018-12-16T20:09:28.084Z,30.65
2018-12-16T20:11:56.570Z,31.47
2018-12-16T20:14:25.317Z,32.55
2018-12-16T20:16:53.841Z,30.52
2018-12-16T20:19:22.225Z,31.90
2018-12-16T20:21:51.064Z,29.23
2018-12-16T20:24:19.714Z,32.50
2018-12-16T20:26:48.101Z,29.05
2018-12-16T20:29:16.422Z,32.33
2018-12-16T20:31:44.825Z,34.10
2018-12-16T20:34:13.411Z,32.85
2018-12-16T20:36:41.790Z,31.05
2018-12-16T20:39:10.183Z,31.97
2018-12-16T20:41:38.469Z,32.33
2018-12-16T20:44:06.793Z,31.87
2018-12-16T20:46:35.111Z,31.60
2018-12-16T20:49:03.450Z,30.35
2018-12-16T20:51:31.785Z,30.77
2018-12-16T20:54:00.312Z,30.37
2018-12-16T20:56:28.655Z,34.27
2018-12-16T20:58:58.581Z,31.77
2018-12-16T21:01:27.797Z,32.07
2018-12-16T21:03:56.530Z,34.63
2018-12-16T21:06:25.070Z,32.48
2018-12-16T21:08:53.860Z,30.30
2018-12-16T21:11:27.630Z,31.07
2018-12-16T21:14:01.350Z,28.90
2018-12-16T21:16:35.094Z,29.27
2018-12-16T21:19:03.430Z,28.03
2018-12-16T21:21:31.805Z,28.93
2018-12-16T21:24:00.902Z,51.40
2018-12-16T21:26:29.762Z,30.23
2018-12-16T21:28:58.576Z,29.90
2018-12-16T21:31:27.021Z,31.97
2018-12-16T21:33:55.422Z,27.82
2018-12-16T21:36:23.741Z,27.30
2018-12-16T21:38:52.050Z,27.05
2018-12-16T21:41:21.864Z,26.47
2018-12-16T21:43:51.156Z,27.40
2018-12-16T21:46:19.860Z,25.30
2018-12-16T21:48:48.194Z,26.73
2018-12-16T21:51:16.584Z,28.60
2018-12-16T21:53:44.850Z,26.10
2018-12-16T21:56:13.266Z,28.25
2018-12-16T21:58:41.829Z,27.23
2018-12-16T22:01:10.344Z,28.73
2018-12-16T22:03:39.074Z,27.95
2018-12-16T22:06:08.222Z,32.42
2018-12-16T22:08:36.643Z,229.40
2018-12-16T22:11:05.021Z,137.47
2018-12-16T22:13:33.283Z,29.77
2018-12-16T22:16:01.736Z,30.05
2018-12-16T22:18:30.466Z,28.13
2018-12-16T22:20:58.794Z,28.50
2018-12-16T22:23:27.445Z,27.00
2018-12-16T22:25:55.837Z,26.75
2018-12-16T22:28:24.105Z,27.40
2018-12-16T22:30:52.498Z,26.42
2018-12-16T22:33:20.902Z,26.25
2018-12-16T22:35:49.253Z,34.53
2018-12-16T22:38:17.714Z,28.77
2018-12-16T22:40:46.108Z,26.97
2018-12-16T22:43:15.180Z,27.58
2018-12-16T22:45:43.504Z,28.40
2018-12-16T22:48:11.923Z,26.65
2018-12-16T22:50:40.228Z,26.87
2018-12-16T22:53:08.630Z,25.55
2018-12-16T22:55:37.054Z,27.27
2018-12-16T22:58:05.340Z,27.25
2018-12-16T23:00:35.801Z,27.93
2018-12-16T23:03:04.087Z,28.23
2018-12-16T23:05:32.411Z,28.30
2018-12-16T23:08:00.732Z,27.37
2018-12-16T23:10:28.973Z,28.70
2018-12-16T23:12:57.339Z,26.80
2018-12-16T23:15:25.727Z,28.47
2018-12-16T23:17:54.101Z,26.27
2018-12-16T23:20:24.470Z,28.67
2018-12-16T23:22:52.884Z,27.37
2018-12-16T23:25:21.240Z,27.43
2018-12-16T23:27:54.119Z,28.42
2018-12-16T23:30:19.838Z,27.73
2018-12-16T23:32:48.158Z,29.40
2018-12-16T23:35:16.433Z,27.60
2018-12-16T23:37:44.730Z,27.73
2018-12-16T23:40:13.068Z,27.30
2018-12-16T23:42:41.369Z,27.07
2018-12-16T23:45:09.957Z,27.37
2018-12-16T23:47:38.297Z,28.47
2018-12-16T23:50:06.943Z,27.40
2018-12-16T23:52:35.247Z,26.68
2018-12-16T23:55:03.771Z,25.30
2018-12-16T23:57:32.016Z,27.20
